createdAt,value
2016-04-03T00:00:22.822Z,0
2016-04-03T00:01:22.856Z,0
2016-04-03T00:02:22.889Z,0
2016-04-03T00:03:22.923Z,0
2016-04-03T00:04:23.098Z,0
2016-04-03T00:05:23.006Z,0
2016-04-03T00:06:23.056Z,0
2016-04-03T00:07:23.091Z,0
2016-04-03T00:08:23.125Z,0
2016-04-03T00:09:23.174Z,0
2016-04-03T00:10:23.192Z,0
2016-04-03T00:11:23.241Z,0
2016-04-03T00:12:23.275Z,0
2016-04-03T00:13:23.325Z,0
2016-04-03T00:14:23.375Z,0
2016-04-03T00:15:23.424Z,0
2016-04-03T00:16:23.443Z,0
2016-04-03T00:17:23.477Z,0
2016-04-03T00:18:23.511Z,0
2016-04-03T00:19:23.655Z,0
2016-04-03T00:20:23.563Z,0
2016-04-03T00:21:23.613Z,0
2016-04-03T00:22:23.507Z,0
2016-04-03T00:23:23.696Z,0
2016-04-03T00:24:23.746Z,0
2016-04-03T00:25:23.764Z,0
2016-04-03T00:26:23.814Z,0
2016-04-03T00:27:23.848Z,0
2016-04-03T00:28:23.898Z,0
2016-04-03T00:29:23.916Z,0
2016-04-03T00:30:23.809Z,0
2016-04-03T00:31:23.999Z,0
2016-04-03T00:32:24.048Z,0
2016-04-03T00:33:24.082Z,0
2016-04-03T00:34:24.164Z,0
2016-04-03T00:35:24.134Z,0
2016-04-03T00:36:24.200Z,0
2016-04-03T00:37:24.233Z,0
2016-04-03T00:38:24.283Z,0
2016-04-03T00:39:24.317Z,0
2016-04-03T00:40:24.351Z,0
2016-04-03T00:41:24.386Z,0
2016-04-03T00:42:24.404Z,0
2016-04-03T00:43:24.453Z,0
2016-04-03T00:44:24.503Z,0
2016-04-03T00:45:24.536Z,0
2016-04-03T00:46:24.555Z,0
2016-04-03T00:47:24.605Z,0
2016-04-03T00:48:24.638Z,0
2016-04-03T00:49:24.969Z,0
2016-04-03T00:50:24.721Z,0
2016-04-03T00:51:24.740Z,0
2016-04-03T00:52:24.805Z,0
2016-04-03T00:53:24.824Z,0
2016-04-03T00:54:24.874Z,0
2016-04-03T00:55:24.923Z,0
2016-04-03T00:56:24.957Z,0
2016-04-03T00:57:24.975Z,0
2016-04-03T00:58:25.024Z,0
2016-04-03T00:59:25.043Z,0
2016-04-03T01:00:25.108Z,0
2016-04-03T01:01:25.158Z,0
2016-04-03T01:02:25.254Z,0
2016-04-03T01:03:25.210Z,0
2016-04-03T01:04:25.385Z,0
2016-04-03T01:05:25.310Z,0
2016-04-03T01:06:25.312Z,0
2016-04-03T01:07:25.253Z,0
2016-04-03T01:08:25.558Z,0
2016-04-03T01:09:25.421Z,0
2016-04-03T01:10:25.470Z,0
2016-04-03T01:11:25.519Z,0
2016-04-03T01:12:25.522Z,0
2016-04-03T01:13:25.587Z,0
2016-04-03T01:14:25.449Z,0
2016-04-03T01:15:25.654Z,0
2016-04-03T01:16:25.690Z,0
2016-04-03T01:17:25.727Z,0
2016-04-03T01:18:25.761Z,0
2016-04-03T01:19:25.952Z,0
2016-04-03T01:20:25.844Z,0
2016-04-03T01:21:25.878Z,0
2016-04-03T01:22:25.912Z,0
2016-04-03T01:23:25.946Z,0
2016-04-03T01:24:25.996Z,0
2016-04-03T01:25:26.030Z,0
2016-04-03T01:26:26.064Z,0
2016-04-03T01:27:26.099Z,0
2016-04-03T01:28:26.147Z,0
2016-04-03T01:29:26.182Z,0
2016-04-03T01:30:26.215Z,0
2016-04-03T01:31:26.265Z,0
2016-04-03T01:32:26.299Z,0
2016-04-03T01:33:26.332Z,0
2016-04-03T01:34:26.726Z,0
2016-04-03T01:35:26.400Z,0
2016-04-03T01:36:26.450Z,0
2016-04-03T01:37:26.484Z,0
2016-04-03T01:38:26.533Z,0
2016-04-03T01:39:26.552Z,0
2016-04-03T01:40:26.601Z,0
2016-04-03T01:41:26.636Z,0
2016-04-03T01:42:26.684Z,0
2016-04-03T01:43:26.734Z,0
2016-04-03T01:44:26.753Z,0
2016-04-03T01:45:26.771Z,0
2016-04-03T01:46:26.820Z,0
2016-04-03T01:47:26.855Z,0
2016-04-03T01:48:26.905Z,0
2016-04-03T01:49:27.017Z,0
2016-04-03T01:50:26.972Z,0
2016-04-03T01:51:27.022Z,0
2016-04-03T01:52:27.040Z,0
2016-04-03T01:53:27.089Z,0
2016-04-03T01:54:27.108Z,0
2016-04-03T01:55:27.174Z,0
2016-04-03T01:56:27.176Z,0
2016-04-03T01:57:27.241Z,0
2016-04-03T01:58:27.274Z,0
2016-04-03T01:59:27.309Z,0
2016-04-03T02:00:27.327Z,0
2016-04-03T02:01:27.393Z,0
2016-04-03T02:02:27.411Z,0
2016-04-03T02:03:27.476Z,0
2016-04-03T02:04:27.619Z,0
2016-04-03T02:05:27.543Z,0
2016-04-03T02:06:27.578Z,0
2016-04-03T02:07:27.632Z,0
2016-04-03T02:08:27.634Z,0
2016-04-03T02:09:27.684Z,0
2016-04-03T02:10:27.703Z,0
2016-04-03T02:11:27.768Z,0
2016-04-03T02:12:27.787Z,0
2016-04-03T02:13:27.836Z,0
2016-04-03T02:14:27.854Z,0
2016-04-03T02:15:27.903Z,0
2016-04-03T02:16:27.953Z,0
2016-04-03T02:17:27.987Z,0
2016-04-03T02:18:28.021Z,0
2016-04-03T02:19:28.117Z,0
2016-04-03T02:20:28.119Z,0
2016-04-03T02:21:28.154Z,0
2016-04-03T02:22:28.172Z,0
2016-04-03T02:23:28.207Z,0
2016-04-03T02:24:28.241Z,0
2016-04-03T02:25:28.305Z,0
2016-04-03T02:26:28.324Z,0
2016-04-03T02:27:28.357Z,0
2016-04-03T02:28:28.407Z,0
2016-04-03T02:29:28.457Z,0
2016-04-03T02:30:28.491Z,0
2016-04-03T02:31:28.509Z,0
2016-04-03T02:32:28.543Z,0
2016-04-03T02:33:28.592Z,0
2016-04-03T02:34:28.626Z,0
2016-04-03T02:35:28.676Z,0
2016-04-03T02:36:28.538Z,0
2016-04-03T02:37:28.745Z,0
2016-04-03T02:38:28.778Z,0
2016-04-03T02:39:28.812Z,0
2016-04-03T02:40:28.892Z,0
2016-04-03T02:41:28.895Z,0
2016-04-03T02:42:28.929Z,0
2016-04-03T02:43:28.978Z,0
2016-04-03T02:44:28.981Z,0
2016-04-03T02:45:29.062Z,0
2016-04-03T02:46:29.065Z,0
2016-04-03T02:47:29.100Z,0
2016-04-03T02:48:29.149Z,0
2016-04-03T02:49:29.417Z,0
2016-04-03T02:50:29.232Z,0
2016-04-03T02:51:29.250Z,0
2016-04-03T02:52:29.299Z,0
2016-04-03T02:53:29.333Z,0
2016-04-03T02:54:29.368Z,0
2016-04-03T02:55:29.386Z,0
2016-04-03T02:56:29.452Z,0
2016-04-03T02:57:29.485Z,0
2016-04-03T02:58:29.535Z,0
2016-04-03T02:59:29.554Z,0
2016-04-03T03:00:29.432Z,0
2016-04-03T03:01:29.621Z,0
2016-04-03T03:02:29.655Z,0
2016-04-03T03:03:29.704Z,0
2016-04-03T03:04:29.895Z,0
2016-04-03T03:05:29.788Z,0
2016-04-03T03:06:29.806Z,0
2016-04-03T03:07:29.871Z,0
2016-04-03T03:08:29.873Z,0
2016-04-03T03:09:29.939Z,0
2016-04-03T03:10:29.942Z,0
2016-04-03T03:11:30.007Z,0
2016-04-03T03:12:30.042Z,0
2016-04-03T03:13:30.091Z,0
2016-04-03T03:14:30.109Z,0
2016-04-03T03:15:30.158Z,0
2016-04-03T03:16:30.208Z,0
2016-04-03T03:17:30.227Z,0
2016-04-03T03:18:30.275Z,0
2016-04-03T03:19:30.451Z,0
2016-04-03T03:20:30.328Z,0
2016-04-03T03:21:30.394Z,0
2016-04-03T03:22:30.412Z,0
2016-04-03T03:23:30.461Z,0
2016-04-03T03:24:30.480Z,0
2016-04-03T03:25:30.529Z,0
2016-04-03T03:26:30.563Z,0
2016-04-03T03:27:30.629Z,0
2016-04-03T03:28:30.646Z,0
2016-04-03T03:29:30.696Z,0
2016-04-03T03:30:30.699Z,0
2016-04-03T03:31:30.748Z,0
2016-04-03T03:32:30.783Z,0
2016-04-03T03:33:30.832Z,0
2016-04-03T03:34:30.944Z,0
2016-04-03T03:35:30.916Z,0
2016-04-03T03:36:30.949Z,0
2016-04-03T03:37:30.984Z,0
2016-04-03T03:38:31.017Z,0
2016-04-03T03:39:31.082Z,0
2016-04-03T03:40:31.085Z,0
2016-04-03T03:41:31.134Z,0
2016-04-03T03:42:31.169Z,0
2016-04-03T03:43:31.202Z,0
2016-04-03T03:44:31.236Z,0
2016-04-03T03:45:31.286Z,0
2016-04-03T03:46:31.320Z,0
2016-04-03T03:47:31.354Z,0
2016-04-03T03:48:31.388Z,0
2016-04-03T03:49:31.484Z,0
2016-04-03T03:50:31.455Z,0
2016-04-03T03:51:31.505Z,0
2016-04-03T03:52:31.571Z,0
2016-04-03T03:53:31.588Z,0
2016-04-03T03:54:31.591Z,0
2016-04-03T03:55:31.672Z,0
2016-04-03T03:56:31.691Z,0
2016-04-03T03:57:31.741Z,0
2016-04-03T03:58:31.791Z,0
2016-04-03T03:59:31.793Z,0
2016-04-03T04:00:31.889Z,0
2016-04-03T04:01:31.860Z,0
2016-04-03T04:02:31.910Z,0
2016-04-03T04:03:31.960Z,0
2016-04-03T04:04:32.196Z,0
2016-04-03T04:05:32.043Z,0
2016-04-03T04:06:32.045Z,0
2016-04-03T04:07:32.127Z,0
2016-04-03T04:08:32.145Z,0
2016-04-03T04:09:32.195Z,0
2016-04-03T04:10:32.213Z,0
2016-04-03T04:11:32.278Z,0
2016-04-03T04:12:32.281Z,0
2016-04-03T04:13:32.345Z,0
2016-04-03T04:14:32.380Z,0
2016-04-03T04:15:32.414Z,0
2016-04-03T04:16:32.603Z,0
2016-04-03T04:17:32.481Z,0
2016-04-03T04:18:32.530Z,0
2016-04-03T04:19:32.471Z,0
2016-04-03T04:20:32.614Z,0
2016-04-03T04:21:32.649Z,0
2016-04-03T04:22:32.683Z,0
2016-04-03T04:23:32.733Z,0
2016-04-03T04:24:32.750Z,0
2016-04-03T04:25:32.785Z,0
2016-04-03T04:26:32.833Z,0
2016-04-03T04:27:32.852Z,0
2016-04-03T04:28:32.902Z,0
2016-04-03T04:29:32.920Z,0
2016-04-03T04:30:32.986Z,0
2016-04-03T04:31:33.035Z,0
2016-04-03T04:32:33.054Z,0
2016-04-03T04:33:33.103Z,0
2016-04-03T04:34:33.340Z,0
2016-04-03T04:35:33.187Z,0
2016-04-03T04:36:33.235Z,0
2016-04-03T04:37:33.223Z,0
2016-04-03T04:38:33.304Z,0
2016-04-03T04:39:33.337Z,0
2016-04-03T04:40:33.387Z,0
2016-04-03T04:41:33.389Z,0
2016-04-03T04:42:33.439Z,0
2016-04-03T04:43:33.458Z,0
2016-04-03T04:44:33.507Z,0
2016-04-03T04:45:33.557Z,0
2016-04-03T04:46:33.575Z,0
2016-04-03T04:47:33.625Z,0
2016-04-03T04:48:33.674Z,0
2016-04-03T04:49:33.927Z,0
2016-04-03T04:50:33.758Z,0
2016-04-03T04:51:33.776Z,0
2016-04-03T04:52:33.810Z,0
2016-04-03T04:53:33.860Z,0
2016-04-03T04:54:33.893Z,0
2016-04-03T04:55:33.927Z,0
2016-04-03T04:56:33.961Z,0
2016-04-03T04:57:34.010Z,0
2016-04-03T04:58:34.045Z,0
2016-04-03T04:59:34.079Z,0
2016-04-03T05:00:34.129Z,0
2016-04-03T05:01:34.147Z,0
2016-04-03T05:02:34.180Z,0
2016-04-03T05:03:34.230Z,0
2016-04-03T05:04:34.389Z,0
2016-04-03T05:05:34.282Z,0
2016-04-03T05:06:34.348Z,0
2016-04-03T05:07:34.210Z,0
2016-04-03T05:08:34.401Z,0
2016-04-03T05:09:34.449Z,0
2016-04-03T05:10:34.452Z,0
2016-04-03T05:11:34.517Z,0
2016-04-03T05:12:34.536Z,0
2016-04-03T05:13:34.617Z,0
2016-04-03T05:14:34.634Z,0
2016-04-03T05:15:34.658Z,0
2016-04-03T05:16:34.712Z,0
2016-04-03T05:17:34.719Z,0
2016-04-03T05:18:34.757Z,0
2016-04-03T05:19:34.953Z,0
2016-04-03T05:20:34.794Z,0
2016-04-03T05:21:34.840Z,5
2016-04-03T05:22:34.855Z,5
2016-04-03T05:23:34.884Z,5
2016-04-03T05:24:34.947Z,5
2016-04-03T05:25:34.948Z,5
2016-04-03T05:26:34.855Z,5
2016-04-03T05:27:35.028Z,5
2016-04-03T05:28:35.077Z,5
2016-04-03T05:29:35.125Z,5
2016-04-03T05:30:35.127Z,5
2016-04-03T05:31:35.207Z,5
2016-04-03T05:32:35.209Z,5
2016-04-03T05:33:35.274Z,5
2016-04-03T05:34:35.573Z,5
2016-04-03T05:35:35.325Z,5
2016-04-03T05:36:35.359Z,5
2016-04-03T05:37:35.393Z,5
2016-04-03T05:38:35.441Z,5
2016-04-03T05:39:35.491Z,5
2016-04-03T05:40:35.509Z,5
2016-04-03T05:41:35.574Z,5
2016-04-03T05:42:35.609Z,5
2016-04-03T05:43:35.642Z,5
2016-04-03T05:44:35.676Z,5
2016-04-03T05:45:35.694Z,5
2016-04-03T05:46:35.759Z,10
2016-04-03T05:47:35.794Z,10
2016-04-03T05:48:35.811Z,10
2016-04-03T05:49:35.939Z,10
2016-04-03T05:50:35.895Z,10
2016-04-03T05:51:35.945Z,10
2016-04-03T05:52:35.978Z,15
2016-04-03T05:53:36.013Z,15
2016-04-03T05:54:36.063Z,15
2016-04-03T05:55:36.081Z,20
2016-04-03T05:56:36.146Z,20
2016-04-03T05:57:36.149Z,20
2016-04-03T05:58:36.199Z,20
2016-04-03T05:59:36.248Z,20
2016-04-03T06:00:36.266Z,20
2016-04-03T06:01:36.347Z,20
2016-04-03T06:02:36.349Z,20
2016-04-03T06:03:36.415Z,25
2016-04-03T06:04:36.418Z,20
2016-04-03T06:05:36.296Z,20
2016-04-03T06:06:36.532Z,25
2016-04-03T06:07:36.535Z,25
2016-04-03T06:08:36.585Z,25
2016-04-03T06:09:36.587Z,25
2016-04-03T06:10:36.637Z,30
2016-04-03T06:11:36.530Z,30
2016-04-03T06:12:36.736Z,30
2016-04-03T06:13:36.754Z,25
2016-04-03T06:14:36.820Z,25
2016-04-03T06:15:36.837Z,25
2016-04-03T06:16:36.872Z,25
2016-04-03T06:17:36.937Z,25
2016-04-03T06:18:36.939Z,25
2016-04-03T06:19:37.067Z,25
2016-04-03T06:20:37.039Z,25
2016-04-03T06:21:37.057Z,20
2016-04-03T06:22:37.122Z,20
2016-04-03T06:23:37.141Z,20
2016-04-03T06:24:37.190Z,20
2016-04-03T06:25:37.225Z,20
2016-04-03T06:26:37.242Z,20
2016-04-03T06:27:37.292Z,25
2016-04-03T06:28:37.326Z,25
2016-04-03T06:29:37.360Z,25
2016-04-03T06:30:37.410Z,25
2016-04-03T06:31:37.444Z,20
2016-04-03T06:32:37.461Z,20
2016-04-03T06:33:37.527Z,15
2016-04-03T06:34:37.733Z,15
2016-04-03T06:35:37.594Z,15
2016-04-03T06:36:37.613Z,20
2016-04-03T06:37:37.647Z,20
2016-04-03T06:38:37.696Z,20
2016-04-03T06:39:37.730Z,25
2016-04-03T06:40:37.780Z,25
2016-04-03T06:41:37.845Z,25
2016-04-03T06:42:37.832Z,30
2016-04-03T06:43:37.913Z,30
2016-04-03T06:44:37.915Z,35
2016-04-03T06:45:37.965Z,35
2016-04-03T06:46:37.984Z,40
2016-04-03T06:47:38.018Z,40
2016-04-03T06:48:37.943Z,35
2016-04-03T06:49:38.117Z,35
2016-04-03T06:50:38.151Z,35
2016-04-03T06:51:38.184Z,45
2016-04-03T06:52:38.219Z,50
2016-04-03T06:53:38.268Z,50
2016-04-03T06:54:38.302Z,50
2016-04-03T06:55:38.352Z,50
2016-04-03T06:56:38.386Z,45
2016-04-03T06:57:38.404Z,45
2016-04-03T06:58:38.454Z,50
2016-04-03T06:59:38.472Z,50
2016-04-03T07:00:38.522Z,55
2016-04-03T07:01:38.555Z,60
2016-04-03T07:02:38.605Z,65
2016-04-03T07:03:38.639Z,75
2016-04-03T07:04:38.422Z,75
2016-04-03T07:05:38.738Z,70
2016-04-03T07:06:38.757Z,65
2016-04-03T07:07:38.790Z,55
2016-04-03T07:08:38.824Z,55
2016-04-03T07:09:38.890Z,55
2016-04-03T07:10:38.923Z,55
2016-04-03T07:11:38.942Z,50
2016-04-03T07:12:38.976Z,50
2016-04-03T07:13:38.994Z,55
2016-04-03T07:14:39.060Z,55
2016-04-03T07:15:39.094Z,55
2016-04-03T07:16:39.143Z,60
2016-04-03T07:17:39.193Z,60
2016-04-03T07:18:39.196Z,55
2016-04-03T07:19:39.401Z,55
2016-04-03T07:20:39.295Z,55
2016-04-03T07:21:39.329Z,55
2016-04-03T07:22:39.362Z,55
2016-04-03T07:23:39.412Z,55
2016-04-03T07:24:39.430Z,55
2016-04-03T07:25:39.511Z,55
2016-04-03T07:26:39.514Z,65
2016-04-03T07:27:39.578Z,70
2016-04-03T07:28:39.581Z,75
2016-04-03T07:29:39.662Z,75
2016-04-03T07:30:39.664Z,75
2016-04-03T07:31:39.995Z,75
2016-04-03T07:32:39.889Z,70
2016-04-03T07:33:40.408Z,70
2016-04-03T07:34:39.879Z,75
2016-04-03T07:35:39.851Z,75
2016-04-03T07:36:39.900Z,75
2016-04-03T07:37:39.934Z,75
2016-04-03T07:38:39.969Z,70
2016-04-03T07:39:40.002Z,65
2016-04-03T07:40:40.052Z,60
2016-04-03T07:41:40.085Z,55
2016-04-03T07:42:40.197Z,55
2016-04-03T07:43:40.169Z,55
2016-04-03T07:44:40.218Z,55
2016-04-03T07:45:40.252Z,60
2016-04-03T07:46:40.286Z,65
2016-04-03T07:47:40.320Z,65
2016-04-03T07:48:40.354Z,65
2016-04-03T07:49:40.387Z,60
2016-04-03T07:50:40.437Z,55
2016-04-03T07:51:40.456Z,55
2016-04-03T07:52:40.506Z,50
2016-04-03T07:53:40.555Z,45
2016-04-03T07:54:40.604Z,50
2016-04-03T07:55:40.639Z,50
2016-04-03T07:56:41.173Z,50
2016-04-03T07:57:40.706Z,50
2016-04-03T07:58:40.740Z,45
2016-04-03T07:59:40.790Z,50
2016-04-03T08:00:40.792Z,50
2016-04-03T08:01:40.842Z,55
2016-04-03T08:02:40.875Z,60
2016-04-03T08:03:40.942Z,70
2016-04-03T08:04:41.084Z,80
2016-04-03T08:05:41.041Z,90
2016-04-03T08:06:41.044Z,100
2016-04-03T08:07:41.077Z,100
2016-04-03T08:08:41.127Z,100
2016-04-03T08:09:41.160Z,105
2016-04-03T08:10:41.194Z,100
2016-04-03T08:11:41.244Z,90
2016-04-03T08:12:41.278Z,85
2016-04-03T08:13:41.343Z,95
2016-04-03T08:14:41.440Z,105
2016-04-03T08:15:41.396Z,105
2016-04-03T08:16:41.429Z,105
2016-04-03T08:17:41.463Z,105
2016-04-03T08:18:41.512Z,105
2016-04-03T08:19:41.749Z,110
2016-04-03T08:20:41.581Z,125
2016-04-03T08:21:41.645Z,145
2016-04-03T08:22:41.680Z,150
2016-04-03T08:23:41.714Z,150
2016-04-03T08:24:41.748Z,150
2016-04-03T08:25:41.782Z,155
2016-04-03T08:26:41.816Z,155
2016-04-03T08:27:41.865Z,155
2016-04-03T08:28:41.884Z,150
2016-04-03T08:29:41.934Z,145
2016-04-03T08:30:42.045Z,140
2016-04-03T08:31:42.017Z,135
2016-04-03T08:32:42.067Z,130
2016-04-03T08:33:42.100Z,125
2016-04-03T08:34:42.259Z,125
2016-04-03T08:35:42.184Z,130
2016-04-03T08:36:42.217Z,125
2016-04-03T08:37:42.252Z,130
2016-04-03T08:38:42.285Z,135
2016-04-03T08:39:42.350Z,135
2016-04-03T08:40:42.369Z,135
2016-04-03T08:41:42.480Z,130
2016-04-03T08:42:42.452Z,125
2016-04-03T08:43:42.346Z,125
2016-04-03T08:44:42.536Z,120
2016-04-03T08:45:42.569Z,115
2016-04-03T08:46:42.619Z,115
2016-04-03T08:47:42.668Z,120
2016-04-03T08:48:42.702Z,125
2016-04-03T08:49:42.815Z,130
2016-04-03T08:50:42.786Z,135
2016-04-03T08:51:42.804Z,130
2016-04-03T08:52:42.870Z,130
2016-04-03T08:53:42.903Z,125
2016-04-03T08:54:42.922Z,125
2016-04-03T08:55:43.003Z,125
2016-04-03T08:56:43.020Z,125
2016-04-03T08:57:43.056Z,125
2016-04-03T08:58:43.104Z,120
2016-04-03T08:59:43.139Z,115
2016-04-03T09:00:43.172Z,115
2016-04-03T09:01:43.222Z,115
2016-04-03T09:02:43.256Z,120
2016-04-03T09:03:43.305Z,130
2016-04-03T09:04:43.324Z,135
2016-04-03T09:05:43.373Z,135
2016-04-03T09:06:43.423Z,130
2016-04-03T09:07:43.547Z,120
2016-04-03T09:08:43.498Z,120
2016-04-03T09:09:43.563Z,125
2016-04-03T09:10:43.597Z,125
2016-04-03T09:11:43.615Z,120
2016-04-03T09:12:43.665Z,130
2016-04-03T09:13:43.714Z,145
2016-04-03T09:14:43.732Z,140
2016-04-03T09:15:43.782Z,130
2016-04-03T09:16:43.832Z,125
2016-04-03T09:17:43.835Z,125
2016-04-03T09:18:43.900Z,125
2016-04-03T09:19:43.778Z,125
2016-04-03T09:20:43.984Z,120
2016-04-03T09:21:43.861Z,125
2016-04-03T09:22:44.067Z,130
2016-04-03T09:23:44.100Z,130
2016-04-03T09:24:44.150Z,135
2016-04-03T09:25:44.183Z,125
2016-04-03T09:26:44.218Z,110
2016-04-03T09:27:44.283Z,110
2016-04-03T09:28:44.317Z,115
2016-04-03T09:29:44.367Z,120
2016-04-03T09:30:44.400Z,135
2016-04-03T09:31:44.435Z,150
2016-04-03T09:32:44.484Z,150
2016-04-03T09:33:44.550Z,145
2016-04-03T09:34:44.568Z,130
2016-04-03T09:35:44.586Z,120
2016-04-03T09:36:44.635Z,115
2016-04-03T09:37:44.669Z,115
2016-04-03T09:38:44.737Z,105
2016-04-03T09:39:44.754Z,105
2016-04-03T09:40:44.804Z,100
2016-04-03T09:41:44.839Z,100
2016-04-03T09:42:44.887Z,110
2016-04-03T09:43:44.906Z,120
2016-04-03T09:44:44.956Z,125
2016-04-03T09:45:45.006Z,120
2016-04-03T09:46:45.055Z,120
2016-04-03T09:47:45.089Z,120
2016-04-03T09:48:45.154Z,110
2016-04-03T09:49:45.156Z,100
2016-04-03T09:50:45.222Z,90
2016-04-03T09:51:45.287Z,80
2016-04-03T09:52:45.290Z,75
2016-04-03T09:53:45.325Z,75
2016-04-03T09:54:45.374Z,75
2016-04-03T09:55:45.391Z,75
2016-04-03T09:56:45.441Z,70
2016-04-03T09:57:45.491Z,70
2016-04-03T09:58:45.540Z,65
2016-04-03T09:59:45.574Z,60
2016-04-03T10:00:45.608Z,60
2016-04-03T10:01:45.674Z,60
2016-04-03T10:02:45.765Z,55
2016-04-03T10:03:45.598Z,55
2016-04-03T10:04:45.961Z,55
2016-04-03T10:05:45.849Z,55
2016-04-03T10:06:48.109Z,60
2016-04-03T10:07:45.924Z,65
2016-04-03T10:08:45.942Z,65
2016-04-03T10:09:45.976Z,75
2016-04-03T10:10:46.025Z,85
2016-04-03T10:11:46.060Z,85
2016-04-03T10:12:46.109Z,70
2016-04-03T10:13:46.143Z,60
2016-04-03T10:14:46.193Z,60
2016-04-03T10:15:46.226Z,65
2016-04-03T10:16:46.886Z,75
2016-04-03T10:17:46.341Z,90
2016-04-03T10:18:46.359Z,115
2016-04-03T10:19:46.566Z,135
2016-04-03T10:20:46.428Z,165
2016-04-03T10:21:46.508Z,175
2016-04-03T10:22:46.511Z,165
2016-04-03T10:23:46.561Z,150
2016-04-03T10:24:46.595Z,145
2016-04-03T10:25:46.707Z,145
2016-04-03T10:26:46.694Z,145
2016-04-03T10:27:46.727Z,150
2016-04-03T10:28:46.761Z,150
2016-04-03T10:29:46.796Z,155
2016-04-03T10:30:46.846Z,165
2016-04-03T10:31:46.895Z,175
2016-04-03T10:32:46.944Z,180
2016-04-03T10:33:46.979Z,180
2016-04-03T10:34:47.293Z,180
2016-04-03T10:35:47.109Z,175
2016-04-03T10:36:47.126Z,175
2016-04-03T10:37:47.176Z,175
2016-04-03T10:38:47.226Z,175
2016-04-03T10:39:47.213Z,170
2016-04-03T10:40:47.248Z,170
2016-04-03T10:41:47.296Z,175
2016-04-03T10:42:47.346Z,175
2016-04-03T10:43:47.990Z,175
2016-04-03T10:44:47.430Z,175
2016-04-03T10:45:47.495Z,175
2016-04-03T10:46:47.514Z,175
2016-04-03T10:47:47.579Z,170
2016-04-03T10:48:47.597Z,160
2016-04-03T10:49:47.631Z,155
2016-04-03T10:50:47.680Z,150
2016-04-03T10:51:47.698Z,145
2016-04-03T10:52:47.763Z,140
2016-04-03T10:53:47.797Z,140
2016-04-03T10:54:47.831Z,140
2016-04-03T10:55:47.881Z,135
2016-04-03T10:56:47.916Z,135
2016-04-03T10:57:47.980Z,135
2016-04-03T10:58:48.014Z,135
2016-04-03T10:59:47.891Z,140
2016-04-03T11:00:48.082Z,150
2016-04-03T11:01:48.146Z,155
2016-04-03T11:02:48.165Z,155
2016-04-03T11:03:48.215Z,155
2016-04-03T11:04:48.312Z,160
2016-04-03T11:05:48.299Z,165
2016-04-03T11:06:48.349Z,160
2016-04-03T11:07:48.374Z,160
2016-04-03T11:08:48.423Z,155
2016-04-03T11:09:48.489Z,150
2016-04-03T11:10:48.523Z,150
2016-04-03T11:11:48.557Z,155
2016-04-03T11:12:48.607Z,160
2016-04-03T11:13:48.640Z,165
2016-04-03T11:14:48.690Z,170
2016-04-03T11:15:48.770Z,170
2016-04-03T11:16:48.773Z,175
2016-04-03T11:17:48.666Z,180
2016-04-03T11:18:48.856Z,180
2016-04-03T11:19:48.922Z,180
2016-04-03T11:20:48.941Z,180
2016-04-03T11:21:48.989Z,180
2016-04-03T11:22:49.055Z,180
2016-04-03T11:23:49.074Z,180
2016-04-03T11:24:49.091Z,170
2016-04-03T11:25:49.204Z,165
2016-04-03T11:26:49.222Z,160
2016-04-03T11:27:49.241Z,150
2016-04-03T11:28:49.275Z,145
2016-04-03T11:29:49.355Z,145
2016-04-03T11:30:49.421Z,140
2016-04-03T11:31:49.392Z,135
2016-04-03T11:32:49.457Z,140
2016-04-03T11:33:49.460Z,135
2016-04-03T11:34:49.540Z,135
2016-04-03T11:35:49.559Z,135
2016-04-03T11:36:49.609Z,135
2016-04-03T11:37:49.643Z,130
2016-04-03T11:38:49.677Z,135
2016-04-03T11:39:49.757Z,130
2016-04-03T11:40:49.760Z,130
2016-04-03T11:41:49.840Z,125
2016-04-03T11:42:49.875Z,120
2016-04-03T11:43:49.908Z,115
2016-04-03T11:44:49.973Z,110
2016-04-03T11:45:49.976Z,105
2016-04-03T11:46:50.042Z,105
2016-04-03T11:47:50.076Z,105
2016-04-03T11:48:50.109Z,105
2016-04-03T11:49:50.175Z,110
2016-04-03T11:50:50.193Z,110
2016-04-03T11:51:50.259Z,110
2016-04-03T11:52:50.339Z,110
2016-04-03T11:53:50.326Z,110
2016-04-03T11:54:50.376Z,110
2016-04-03T11:55:50.456Z,110
2016-04-03T11:56:50.444Z,105
2016-04-03T11:57:50.477Z,115
2016-04-03T11:58:50.543Z,110
2016-04-03T11:59:50.560Z,110
2016-04-03T12:00:50.626Z,115
2016-04-03T12:01:50.677Z,100
2016-04-03T12:02:50.757Z,100
2016-04-03T12:03:50.727Z,100
2016-04-03T12:04:50.778Z,115
2016-04-03T12:05:50.813Z,125
2016-04-03T12:06:50.861Z,130
2016-04-03T12:07:50.942Z,145
2016-04-03T12:08:50.960Z,165
2016-04-03T12:09:50.994Z,170
2016-04-03T12:10:51.107Z,135
2016-04-03T12:11:50.922Z,120
2016-04-03T12:12:51.127Z,115
2016-04-03T12:13:51.193Z,120
2016-04-03T12:14:51.195Z,125
2016-04-03T12:15:51.260Z,120
2016-04-03T12:16:51.295Z,130
2016-04-03T12:17:51.391Z,125
2016-04-03T12:18:51.378Z,110
2016-04-03T12:19:51.442Z,110
2016-04-03T12:20:51.462Z,105
2016-04-03T12:21:51.542Z,100
2016-04-03T12:22:51.545Z,105
2016-04-03T12:23:51.578Z,115
2016-04-03T12:24:51.659Z,125
2016-04-03T12:25:51.928Z,130
2016-04-03T12:26:51.711Z,125
2016-04-03T12:27:51.793Z,125
2016-04-03T12:28:51.655Z,120
2016-04-03T12:29:51.845Z,120
2016-04-03T12:30:51.911Z,130
2016-04-03T12:31:51.913Z,140
2016-04-03T12:32:51.994Z,145
2016-04-03T12:33:52.013Z,155
2016-04-03T12:34:52.061Z,160
2016-04-03T12:35:52.128Z,155
2016-04-03T12:36:52.161Z,155
2016-04-03T12:37:52.194Z,155
2016-04-03T12:38:52.213Z,160
2016-04-03T12:39:52.262Z,160
2016-04-03T12:40:52.313Z,135
2016-04-03T12:41:52.363Z,120
2016-04-03T12:42:52.427Z,120
2016-04-03T12:43:52.446Z,115
2016-04-03T12:44:52.496Z,130
2016-04-03T12:45:52.545Z,135
2016-04-03T12:46:52.579Z,130
2016-04-03T12:47:52.613Z,135
2016-04-03T12:48:52.679Z,145
2016-04-03T12:49:52.712Z,145
2016-04-03T12:50:52.777Z,155
2016-04-03T12:51:52.796Z,150
2016-04-03T12:52:52.845Z,135
2016-04-03T12:53:52.879Z,125
2016-04-03T12:54:52.959Z,120
2016-04-03T12:55:52.962Z,125
2016-04-03T12:56:52.996Z,125
2016-04-03T12:57:53.078Z,115
2016-04-03T12:58:53.095Z,105
2016-04-03T12:59:53.161Z,110
2016-04-03T13:00:53.195Z,115
2016-04-03T13:01:53.276Z,115
2016-04-03T13:02:53.309Z,115
2016-04-03T13:03:53.296Z,120
2016-04-03T13:04:53.347Z,115
2016-04-03T13:05:53.395Z,110
2016-04-03T13:06:53.445Z,100
2016-04-03T13:07:53.495Z,100
2016-04-03T13:08:53.372Z,95
2016-04-03T13:09:53.578Z,95
2016-04-03T13:10:53.644Z,100
2016-04-03T13:11:53.678Z,105
2016-04-03T13:12:53.696Z,110
2016-04-03T13:13:53.746Z,110
2016-04-03T13:14:53.811Z,115
2016-04-03T13:15:53.860Z,115
2016-04-03T13:16:53.894Z,120
2016-04-03T13:17:53.928Z,125
2016-04-03T13:18:53.962Z,125
2016-04-03T13:19:54.012Z,125
2016-04-03T13:20:54.046Z,120
2016-04-03T13:21:54.110Z,115
2016-04-03T13:22:54.144Z,115
2016-04-03T13:23:54.210Z,115
2016-04-03T13:24:54.243Z,115
2016-04-03T13:25:54.278Z,115
2016-04-03T13:26:54.327Z,110
2016-04-03T13:27:54.361Z,110
2016-04-03T13:28:54.411Z,110
2016-04-03T13:29:54.444Z,100
2016-04-03T13:30:54.495Z,115
2016-04-03T13:31:54.544Z,115
2016-04-03T13:32:54.577Z,120
2016-04-03T13:33:54.628Z,120
2016-04-03T13:34:54.661Z,130
2016-04-03T13:35:54.710Z,130
2016-04-03T13:36:54.775Z,120
2016-04-03T13:37:54.810Z,115
2016-04-03T13:38:54.844Z,110
2016-04-03T13:39:54.909Z,100
2016-04-03T13:40:54.944Z,95
2016-04-03T13:41:54.961Z,100
2016-04-03T13:42:54.995Z,100
2016-04-03T13:43:54.888Z,105
2016-04-03T13:44:55.094Z,100
2016-04-03T13:45:55.128Z,95
2016-04-03T13:46:55.177Z,100
2016-04-03T13:47:55.243Z,90
2016-04-03T13:48:55.261Z,100
2016-04-03T13:49:55.326Z,95
2016-04-03T13:50:55.361Z,100
2016-04-03T13:51:55.394Z,100
2016-04-03T13:52:55.429Z,105
2016-04-03T13:53:55.494Z,110
2016-04-03T13:54:55.512Z,110
2016-04-03T13:55:55.562Z,105
2016-04-03T13:56:55.751Z,105
2016-04-03T13:57:55.660Z,105
2016-04-03T13:58:55.695Z,105
2016-04-03T13:59:55.744Z,105
2016-04-03T14:00:55.778Z,105
2016-04-03T14:01:55.827Z,105
2016-04-03T14:02:55.877Z,105
2016-04-03T14:03:55.911Z,105
2016-04-03T14:04:55.960Z,105
2016-04-03T14:05:56.011Z,100
2016-04-03T14:06:56.044Z,105
2016-04-03T14:07:55.937Z,100
2016-04-03T14:08:56.143Z,100
2016-04-03T14:09:56.177Z,100
2016-04-03T14:10:56.211Z,100
2016-04-03T14:11:56.276Z,100
2016-04-03T14:12:56.310Z,100
2016-04-03T14:13:56.360Z,100
2016-04-03T14:14:56.410Z,100
2016-04-03T14:15:56.444Z,100
2016-04-03T14:16:56.478Z,105